Terminal Aerodrome Forecast
Issued by NWS

Home | Current Version | Previous Version | Text Only | Print | Product List | Glossary On
Versions: 1 2 3 4 5 6 7 8 9 10 11 12 13 14 15 16 17 18 19 20 21 22 23 24 25 26 27 28 29 30 31 32 33 34 35 36 37 38 39 40 41 42 43 44 45 46 47 48 49 50
000
FTUS41 KCTP 192341
TAFBFD
TAF
KBFD 192341Z 2000/2024 14015G20KT P6SM BKN050 OVC100 WS020/15040KT
     FM200200 14015G25KT 5SM -RA OVC025 WS020/14050KT
     FM200600 14020G30KT 3SM RA BR OVC010 WS020/15060KT
     FM201200 15010KT P6SM OVC015
     FM201600 17010G15KT P6SM OVC035
     FM202000 21010KT P6SM VCSH BKN040=

USA.gov is the U.S. government's official web portal to all federal, state and local government web resources and services.